Search for airport 
image banner adimage banner adimage banner ad
image banner ad

80CL - Blythe Service Center

Located in Blythe, United States

ICAO - 80CL, IATA -

Data provided by Airmate  

General information

Coordinates: N33°36'18" W114°36'8"
Elevation is 297 feet MSL.
Magnetic variation is 13° East
View others Airports in California

Operational data

Special qualification required
Current time UTC:
Current local time:
Weather at : KBLH - Blythe ( 11 km )
METAR: KBLH 292152Z AUTO 00000KT 10SM FEW110 44/11 A2971 RMK AO2 SLP052 T04390106
TAF: KBLH 291753Z 2918/3018 14006KT P6SM FEW150 BKN250 FM300600 16012KT P6SM VCSH SCT080 SCT150 BKN250 FM301000 17015KT P6SM FEW100 SCT150 BKN250
View NOTAMs / SUP AIP / TFR affecting this airport [VIEW]
Communications frequencies: [VIEW]

Runways:

Airport contact information

Address: Blythe United States

Satellite view of 80CL